sensor_id;sensor_type;location;lat;lon;timestamp;temperature;humidity
13115;DHT22;6623;52.120;8.660;2022-11-20T00:01:43;-0.80;77.40
13115;DHT22;6623;52.120;8.660;2022-11-20T00:04:10;-0.80;77.40
13115;DHT22;6623;52.120;8.660;2022-11-20T00:06:37;-0.80;77.30
13115;DHT22;6623;52.120;8.660;2022-11-20T00:09:03;-0.80;77.30
13115;DHT22;6623;52.120;8.660;2022-11-20T00:11:31;-0.80;77.40
13115;DHT22;6623;52.120;8.660;2022-11-20T00:13:58;-0.90;77.40
13115;DHT22;6623;52.120;8.660;2022-11-20T00:16:26;-0.10;77.90
13115;DHT22;6623;52.120;8.660;2022-11-20T00:18:52;-0.90;77.50
13115;DHT22;6623;52.120;8.660;2022-11-20T00:21:24;-0.90;77.50
13115;DHT22;6623;52.120;8.660;2022-11-20T00:23:51;-0.90;77.50
13115;DHT22;6623;52.120;8.660;2022-11-20T00:26:18;-0.90;77.50
13115;DHT22;6623;52.120;8.660;2022-11-20T00:28:49;-0.90;77.50
13115;DHT22;6623;52.120;8.660;2022-11-20T00:31:16;-0.90;77.50
13115;DHT22;6623;52.120;8.660;2022-11-20T00:33:43;-1.00;77.50
13115;DHT22;6623;52.120;8.660;2022-11-20T00:36:14;-1.00;77.60
13115;DHT22;6623;52.120;8.660;2022-11-20T00:38:40;-1.00;77.60
13115;DHT22;6623;52.120;8.660;2022-11-20T00:41:14;-1.00;77.70
13115;DHT22;6623;52.120;8.660;2022-11-20T00:43:40;-1.00;77.80
13115;DHT22;6623;52.120;8.660;2022-11-20T00:46:07;-1.00;78.00
13115;DHT22;6623;52.120;8.660;2022-11-20T00:48:33;-1.00;77.90
13115;DHT22;6623;52.120;8.660;2022-11-20T00:50:59;-1.10;77.80
13115;DHT22;6623;52.120;8.660;2022-11-20T00:53:25;-1.10;77.80
13115;DHT22;6623;52.120;8.660;2022-11-20T00:56:00;-1.00;77.90
13115;DHT22;6623;52.120;8.660;2022-11-20T00:58:33;-1.10;77.70
13115;DHT22;6623;52.120;8.660;2022-11-20T01:01:07;-1.00;77.70
13115;DHT22;6623;52.120;8.660;2022-11-20T01:03:35;-1.10;77.70
13115;DHT22;6623;52.120;8.660;2022-11-20T01:06:03;-1.10;77.60
13115;DHT22;6623;52.120;8.660;2022-11-20T01:08:30;-1.10;77.60
13115;DHT22;6623;52.120;8.660;2022-11-20T01:11:06;-1.10;77.60
13115;DHT22;6623;52.120;8.660;2022-11-20T01:13:32;-1.10;77.60
13115;DHT22;6623;52.120;8.660;2022-11-20T01:16:19;-1.10;77.70
13115;DHT22;6623;52.120;8.660;2022-11-20T01:18:47;-1.10;77.60
13115;DHT22;6623;52.120;8.660;2022-11-20T01:21:21;-1.10;77.60
13115;DHT22;6623;52.120;8.660;2022-11-20T01:23:48;-1.20;77.60
13115;DHT22;6623;52.120;8.660;2022-11-20T01:26:17;-1.20;77.60
13115;DHT22;6623;52.120;8.660;2022-11-20T01:28:43;-1.20;77.60
13115;DHT22;6623;52.120;8.660;2022-11-20T01:31:19;-1.20;77.60
13115;DHT22;6623;52.120;8.660;2022-11-20T01:33:47;-1.20;77.60
13115;DHT22;6623;52.120;8.660;2022-11-20T01:36:14;-1.20;77.60
13115;DHT22;6623;52.120;8.660;2022-11-20T01:38:40;-1.20;77.60
13115;DHT22;6623;52.120;8.660;2022-11-20T01:41:06;-1.30;77.70
13115;DHT22;6623;52.120;8.660;2022-11-20T01:43:32;-1.30;77.60
13115;DHT22;6623;52.120;8.660;2022-11-20T01:46:14;-1.30;77.60
13115;DHT22;6623;52.120;8.660;2022-11-20T01:48:52;-1.30;77.60
13115;DHT22;6623;52.120;8.660;2022-11-20T01:51:29;-1.30;77.60
13115;DHT22;6623;52.120;8.660;2022-11-20T01:54:00;-1.30;77.60
13115;DHT22;6623;52.120;8.660;2022-11-20T01:56:27;-1.40;77.60
13115;DHT22;6623;52.120;8.660;2022-11-20T01:58:58;-1.40;77.60
13115;DHT22;6623;52.120;8.660;2022-11-20T02:01:24;-1.30;77.70
13115;DHT22;6623;52.120;8.660;2022-11-20T02:03:50;-1.40;77.80
13115;DHT22;6623;52.120;8.660;2022-11-20T02:06:39;-1.40;77.70
13115;DHT22;6623;52.120;8.660;2022-11-20T02:09:06;-1.40;77.70
13115;DHT22;6623;52.120;8.660;2022-11-20T02:11:31;-1.50;77.60
13115;DHT22;6623;52.120;8.660;2022-11-20T02:13:58;-1.40;77.60
13115;DHT22;6623;52.120;8.660;2022-11-20T02:19:30;-1.40;77.50
13115;DHT22;6623;52.120;8.660;2022-11-20T02:22:07;-1.40;77.60
13115;DHT22;6623;52.120;8.660;2022-11-20T02:24:35;-1.40;77.60
13115;DHT22;6623;52.120;8.660;2022-11-20T02:27:12;-1.40;77.60
13115;DHT22;6623;52.120;8.660;2022-11-20T02:29:42;-1.50;77.40
13115;DHT22;6623;52.120;8.660;2022-11-20T02:32:25;-1.50;77.40
13115;DHT22;6623;52.120;8.660;2022-11-20T02:34:51;-1.40;77.50
13115;DHT22;6623;52.120;8.660;2022-11-20T02:37:18;-1.50;77.50
13115;DHT22;6623;52.120;8.660;2022-11-20T02:39:46;-1.50;77.40
13115;DHT22;6623;52.120;8.660;2022-11-20T02:42:13;-1.50;77.40
13115;DHT22;6623;52.120;8.660;2022-11-20T02:44:38;-1.50;77.50
13115;DHT22;6623;52.120;8.660;2022-11-20T02:47:04;-1.60;77.50
13115;DHT22;6623;52.120;8.660;2022-11-20T02:49:30;-1.50;78.10
13115;DHT22;6623;52.120;8.660;2022-11-20T02:51:55;-1.60;77.40
13115;DHT22;6623;52.120;8.660;2022-11-20T02:54:21;-1.50;77.40
13115;DHT22;6623;52.120;8.660;2022-11-20T02:56:46;-1.50;77.40
13115;DHT22;6623;52.120;8.660;2022-11-20T02:59:12;-1.60;77.40
13115;DHT22;6623;52.120;8.660;2022-11-20T03:01:37;-1.60;78.00
13115;DHT22;6623;52.120;8.660;2022-11-20T03:04:04;-1.60;77.40
13115;DHT22;6623;52.120;8.660;2022-11-20T03:06:29;-1.60;77.40
13115;DHT22;6623;52.120;8.660;2022-11-20T03:08:55;-1.70;77.40
13115;DHT22;6623;52.120;8.660;2022-11-20T03:11:20;-1.60;77.50
13115;DHT22;6623;52.120;8.660;2022-11-20T03:13:46;-1.70;77.60
13115;DHT22;6623;52.120;8.660;2022-11-20T03:16:14;-1.70;77.70
13115;DHT22;6623;52.120;8.660;2022-11-20T03:18:41;-1.70;77.60
13115;DHT22;6623;52.120;8.660;2022-11-20T03:21:08;-1.70;77.50
13115;DHT22;6623;52.120;8.660;2022-11-20T03:23:34;-0.60;78.10
13115;DHT22;6623;52.120;8.660;2022-11-20T03:28:36;-1.70;77.50
13115;DHT22;6623;52.120;8.660;2022-11-20T03:31:09;-1.70;77.50
13115;DHT22;6623;52.120;8.660;2022-11-20T03:33:36;-1.70;77.40
13115;DHT22;6623;52.120;8.660;2022-11-20T03:36:07;-1.70;77.50
13115;DHT22;6623;52.120;8.660;2022-11-20T03:38:33;-1.70;77.50
13115;DHT22;6623;52.120;8.660;2022-11-20T03:41:00;-1.70;77.50
13115;DHT22;6623;52.120;8.660;2022-11-20T03:43:26;-1.70;77.60
13115;DHT22;6623;52.120;8.660;2022-11-20T03:45:53;-1.70;77.60
13115;DHT22;6623;52.120;8.660;2022-11-20T03:48:18;-1.70;77.70
13115;DHT22;6623;52.120;8.660;2022-11-20T03:50:44;-1.80;77.60
13115;DHT22;6623;52.120;8.660;2022-11-20T03:53:09;-1.80;77.80
13115;DHT22;6623;52.120;8.660;2022-11-20T03:55:35;-1.80;77.70
13115;DHT22;6623;52.120;8.660;2022-11-20T03:58:00;-1.80;77.70
13115;DHT22;6623;52.120;8.660;2022-11-20T04:00:26;-1.80;77.60
13115;DHT22;6623;52.120;8.660;2022-11-20T04:02:51;-0.90;78.80
13115;DHT22;6623;52.120;8.660;2022-11-20T04:05:17;-1.80;77.60
13115;DHT22;6623;52.120;8.660;2022-11-20T04:07:42;-1.80;77.50
13115;DHT22;6623;52.120;8.660;2022-11-20T04:10:08;-1.80;77.60
13115;DHT22;6623;52.120;8.660;2022-11-20T04:12:36;-1.80;77.50
13115;DHT22;6623;52.120;8.660;2022-11-20T04:15:01;-1.80;77.40
13115;DHT22;6623;52.120;8.660;2022-11-20T04:17:27;-1.90;77.40
13115;DHT22;6623;52.120;8.660;2022-11-20T04:19:53;-1.90;77.30
13115;DHT22;6623;52.120;8.660;2022-11-20T04:22:18;-1.90;77.40
13115;DHT22;6623;52.120;8.660;2022-11-20T04:24:44;-1.90;77.50
13115;DHT22;6623;52.120;8.660;2022-11-20T04:27:09;-2.00;77.60
13115;DHT22;6623;52.120;8.660;2022-11-20T04:29:35;-2.00;77.60
13115;DHT22;6623;52.120;8.660;2022-11-20T04:32:00;-2.00;77.60
13115;DHT22;6623;52.120;8.660;2022-11-20T04:34:26;-2.00;77.50
13115;DHT22;6623;52.120;8.660;2022-11-20T04:36:51;-2.00;77.50
13115;DHT22;6623;52.120;8.660;2022-11-20T04:39:17;-2.00;77.50
13115;DHT22;6623;52.120;8.660;2022-11-20T04:41:43;-2.00;78.10
13115;DHT22;6623;52.120;8.660;2022-11-20T04:44:08;-2.00;77.40
13115;DHT22;6623;52.120;8.660;2022-11-20T04:46:39;-2.00;77.30
13115;DHT22;6623;52.120;8.660;2022-11-20T04:49:06;-2.00;77.30
13115;DHT22;6623;52.120;8.660;2022-11-20T04:51:32;-2.00;77.20
13115;DHT22;6623;52.120;8.660;2022-11-20T04:53:58;-2.00;77.20
13115;DHT22;6623;52.120;8.660;2022-11-20T04:56:24;-2.10;77.10
13115;DHT22;6623;52.120;8.660;2022-11-20T04:58:49;-2.00;77.10
13115;DHT22;6623;52.120;8.660;2022-11-20T05:01:18;-2.00;77.20
13115;DHT22;6623;52.120;8.660;2022-11-20T05:03:44;-2.00;77.10
13115;DHT22;6623;52.120;8.660;2022-11-20T05:06:12;-2.00;77.10
13115;DHT22;6623;52.120;8.660;2022-11-20T05:08:39;-2.10;77.00
13115;DHT22;6623;52.120;8.660;2022-11-20T05:11:06;-2.10;77.00
13115;DHT22;6623;52.120;8.660;2022-11-20T05:13:32;-2.10;77.00
13115;DHT22;6623;52.120;8.660;2022-11-20T05:16:09;-1.50;77.30
13115;DHT22;6623;52.120;8.660;2022-11-20T05:18:36;-2.10;77.00
13115;DHT22;6623;52.120;8.660;2022-11-20T05:21:02;-2.10;77.00
13115;DHT22;6623;52.120;8.660;2022-11-20T05:23:29;-2.10;77.10
13115;DHT22;6623;52.120;8.660;2022-11-20T05:25:56;-2.20;77.00
13115;DHT22;6623;52.120;8.660;2022-11-20T05:28:22;-2.10;77.10
13115;DHT22;6623;52.120;8.660;2022-11-20T05:30:48;-2.10;77.00
13115;DHT22;6623;52.120;8.660;2022-11-20T05:33:14;-2.10;77.10
13115;DHT22;6623;52.120;8.660;2022-11-20T05:35:40;-2.10;77.20
13115;DHT22;6623;52.120;8.660;2022-11-20T05:38:05;-2.10;77.30
13115;DHT22;6623;52.120;8.660;2022-11-20T05:40:31;-2.10;77.40
13115;DHT22;6623;52.120;8.660;2022-11-20T05:42:56;-2.10;77.40
13115;DHT22;6623;52.120;8.660;2022-11-20T05:45:22;-2.10;77.50
13115;DHT22;6623;52.120;8.660;2022-11-20T05:47:47;-2.10;77.60
13115;DHT22;6623;52.120;8.660;2022-11-20T05:50:13;-2.10;77.60
13115;DHT22;6623;52.120;8.660;2022-11-20T05:52:40;-2.10;77.50
13115;DHT22;6623;52.120;8.660;2022-11-20T05:55:05;-2.10;77.50
13115;DHT22;6623;52.120;8.660;2022-11-20T05:57:31;-2.10;77.50
13115;DHT22;6623;52.120;8.660;2022-11-20T05:59:57;-2.10;77.30
13115;DHT22;6623;52.120;8.660;2022-11-20T06:02:22;-2.10;77.30
13115;DHT22;6623;52.120;8.660;2022-11-20T06:04:48;-2.10;77.20
13115;DHT22;6623;52.120;8.660;2022-11-20T06:07:14;-2.10;77.10
13115;DHT22;6623;52.120;8.660;2022-11-20T06:09:39;-2.20;77.10
13115;DHT22;6623;52.120;8.660;2022-11-20T06:12:05;-2.20;77.10
13115;DHT22;6623;52.120;8.660;2022-11-20T06:14:31;-2.20;77.20
13115;DHT22;6623;52.120;8.660;2022-11-20T06:16:56;-2.20;77.20
13115;DHT22;6623;52.120;8.660;2022-11-20T06:19:22;-2.20;77.20
13115;DHT22;6623;52.120;8.660;2022-11-20T06:21:48;-2.20;77.20
13115;DHT22;6623;52.120;8.660;2022-11-20T06:24:17;-2.20;77.30
13115;DHT22;6623;52.120;8.660;2022-11-20T06:26:44;-2.30;77.20
13115;DHT22;6623;52.120;8.660;2022-11-20T06:29:10;-2.20;77.40
13115;DHT22;6623;52.120;8.660;2022-11-20T06:31:36;-2.20;77.40
13115;DHT22;6623;52.120;8.660;2022-11-20T06:34:04;-2.20;77.30
13115;DHT22;6623;52.120;8.660;2022-11-20T06:36:31;-2.20;77.30
13115;DHT22;6623;52.120;8.660;2022-11-20T06:38:56;-2.20;77.30
13115;DHT22;6623;52.120;8.660;2022-11-20T06:41:22;-2.20;77.30
13115;DHT22;6623;52.120;8.660;2022-11-20T06:43:48;-2.20;77.30
13115;DHT22;6623;52.120;8.660;2022-11-20T06:46:15;-2.30;77.30
13115;DHT22;6623;52.120;8.660;2022-11-20T06:48:43;-2.30;77.30
13115;DHT22;6623;52.120;8.660;2022-11-20T06:51:09;-2.30;77.40
13115;DHT22;6623;52.120;8.660;2022-11-20T06:53:35;-2.30;77.40
13115;DHT22;6623;52.120;8.660;2022-11-20T06:56:01;-2.30;77.50
13115;DHT22;6623;52.120;8.660;2022-11-20T06:58:29;-2.30;77.60
13115;DHT22;6623;52.120;8.660;2022-11-20T07:01:03;-2.30;77.50
13115;DHT22;6623;52.120;8.660;2022-11-20T07:03:29;-2.20;77.60
13115;DHT22;6623;52.120;8.660;2022-11-20T07:05:58;-2.20;77.60
13115;DHT22;6623;52.120;8.660;2022-11-20T07:08:25;-2.20;77.60
13115;DHT22;6623;52.120;8.660;2022-11-20T07:10:56;-2.20;77.60
13115;DHT22;6623;52.120;8.660;2022-11-20T07:13:22;-2.20;77.70
13115;DHT22;6623;52.120;8.660;2022-11-20T07:15:48;-1.70;78.10
13115;DHT22;6623;52.120;8.660;2022-11-20T07:18:13;-2.20;77.90
13115;DHT22;6623;52.120;8.660;2022-11-20T07:20:39;-2.20;77.90
13115;DHT22;6623;52.120;8.660;2022-11-20T07:23:04;-2.20;78.00
13115;DHT22;6623;52.120;8.660;2022-11-20T07:25:30;-2.20;78.00
13115;DHT22;6623;52.120;8.660;2022-11-20T07:27:59;-2.20;78.20
13115;DHT22;6623;52.120;8.660;2022-11-20T07:30:26;-2.10;78.20
13115;DHT22;6623;52.120;8.660;2022-11-20T07:32:52;-2.10;78.30
13115;DHT22;6623;52.120;8.660;2022-11-20T07:35:18;-2.10;78.30
13115;DHT22;6623;52.120;8.660;2022-11-20T07:37:44;-2.10;78.40
13115;DHT22;6623;52.120;8.660;2022-11-20T07:40:15;-2.10;78.70
13115;DHT22;6623;52.120;8.660;2022-11-20T07:42:51;-2.00;79.00
13115;DHT22;6623;52.120;8.660;2022-11-20T07:45:20;-2.00;79.10
13115;DHT22;6623;52.120;8.660;2022-11-20T07:47:46;-2.00;79.10
13115;DHT22;6623;52.120;8.660;2022-11-20T07:50:12;-1.90;79.10
13115;DHT22;6623;52.120;8.660;2022-11-20T07:52:38;-2.00;78.90
13115;DHT22;6623;52.120;8.660;2022-11-20T07:55:04;-2.00;79.00
13115;DHT22;6623;52.120;8.660;2022-11-20T07:57:30;-1.90;79.20
13115;DHT22;6623;52.120;8.660;2022-11-20T07:59:56;-1.90;79.40
13115;DHT22;6623;52.120;8.660;2022-11-20T08:02:21;-1.90;79.50
13115;DHT22;6623;52.120;8.660;2022-11-20T08:04:47;-1.80;79.80
13115;DHT22;6623;52.120;8.660;2022-11-20T08:07:12;-1.80;80.10
13115;DHT22;6623;52.120;8.660;2022-11-20T08:09:38;-1.70;80.40
13115;DHT22;6623;52.120;8.660;2022-11-20T08:12:04;-1.70;80.60
13115;DHT22;6623;52.120;8.660;2022-11-20T08:14:48;-1.50;80.80
13115;DHT22;6623;52.120;8.660;2022-11-20T08:17:13;-1.30;81.20
13115;DHT22;6623;52.120;8.660;2022-11-20T08:19:39;-1.40;81.30
13115;DHT22;6623;52.120;8.660;2022-11-20T08:22:04;-1.30;81.50
13115;DHT22;6623;52.120;8.660;2022-11-20T08:24:30;-1.20;81.80
13115;DHT22;6623;52.120;8.660;2022-11-20T08:26:58;-1.20;81.90
13115;DHT22;6623;52.120;8.660;2022-11-20T08:29:25;-1.00;81.90
13115;DHT22;6623;52.120;8.660;2022-11-20T08:31:51;-0.90;81.90
13115;DHT22;6623;52.120;8.660;2022-11-20T08:34:16;-0.80;82.00
13115;DHT22;6623;52.120;8.660;2022-11-20T08:36:42;-0.80;82.00
13115;DHT22;6623;52.120;8.660;2022-11-20T08:39:07;-0.70;82.00
13115;DHT22;6623;52.120;8.660;2022-11-20T08:41:33;-0.70;82.00
13115;DHT22;6623;52.120;8.660;2022-11-20T08:44:00;-0.10;82.30
13115;DHT22;6623;52.120;8.660;2022-11-20T08:46:31;-0.60;82.10
13115;DHT22;6623;52.120;8.660;2022-11-20T08:48:58;-0.50;82.20
13115;DHT22;6623;52.120;8.660;2022-11-20T08:51:23;-0.40;82.40
13115;DHT22;6623;52.120;8.660;2022-11-20T08:53:49;-0.50;82.30
13115;DHT22;6623;52.120;8.660;2022-11-20T08:56:15;-0.30;82.30
13115;DHT22;6623;52.120;8.660;2022-11-20T08:58:41;-0.30;82.20
13115;DHT22;6623;52.120;8.660;2022-11-20T09:01:07;-0.10;82.30
13115;DHT22;6623;52.120;8.660;2022-11-20T09:03:32;-0.20;82.00
13115;DHT22;6623;52.120;8.660;2022-11-20T09:06:03;-0.20;81.90
13115;DHT22;6623;52.120;8.660;2022-11-20T09:08:30;-0.20;81.90
13115;DHT22;6623;52.120;8.660;2022-11-20T09:10:57;-0.20;81.90
13115;DHT22;6623;52.120;8.660;2022-11-20T09:13:24;-0.20;81.90
13115;DHT22;6623;52.120;8.660;2022-11-20T09:15:57;-0.10;82.00
13115;DHT22;6623;52.120;8.660;2022-11-20T09:18:24;-0.10;82.10
13115;DHT22;6623;52.120;8.660;2022-11-20T09:20:50;0.60;82.50
13115;DHT22;6623;52.120;8.660;2022-11-20T09:23:15;0.00;82.20
13115;DHT22;6623;52.120;8.660;2022-11-20T09:25:42;0.00;82.20
13115;DHT22;6623;52.120;8.660;2022-11-20T09:28:08;0.10;82.20
13115;DHT22;6623;52.120;8.660;2022-11-20T09:30:33;0.10;82.30
13115;DHT22;6623;52.120;8.660;2022-11-20T09:32:59;0.10;82.40
13115;DHT22;6623;52.120;8.660;2022-11-20T09:35:24;0.20;82.40
13115;DHT22;6623;52.120;8.660;2022-11-20T09:37:50;0.20;82.40
13115;DHT22;6623;52.120;8.660;2022-11-20T09:40:20;0.30;82.60
13115;DHT22;6623;52.120;8.660;2022-11-20T09:43:18;0.40;82.40
13115;DHT22;6623;52.120;8.660;2022-11-20T09:45:50;0.40;82.20
13115;DHT22;6623;52.120;8.660;2022-11-20T09:54:18;0.50;82.30
13115;DHT22;6623;52.120;8.660;2022-11-20T09:56:49;0.50;82.50
13115;DHT22;6623;52.120;8.660;2022-11-20T09:59:43;0.60;82.80
13115;DHT22;6623;52.120;8.660;2022-11-20T10:02:29;0.60;83.10
13115;DHT22;6623;52.120;8.660;2022-11-20T10:05:09;0.70;83.30
13115;DHT22;6623;52.120;8.660;2022-11-20T10:10:16;0.80;83.40
13115;DHT22;6623;52.120;8.660;2022-11-20T10:13:17;2.60;84.10
13115;DHT22;6623;52.120;8.660;2022-11-20T10:21:30;1.10;83.40
13115;DHT22;6623;52.120;8.660;2022-11-20T10:29:32;1.30;83.60
13115;DHT22;6623;52.120;8.660;2022-11-20T10:32:10;1.40;83.50
13115;DHT22;6623;52.120;8.660;2022-11-20T10:34:46;1.40;83.50
13115;DHT22;6623;52.120;8.660;2022-11-20T10:37:22;1.50;83.50
13115;DHT22;6623;52.120;8.660;2022-11-20T10:39:54;1.60;83.40
13115;DHT22;6623;52.120;8.660;2022-11-20T10:42:42;1.50;83.10
13115;DHT22;6623;52.120;8.660;2022-11-20T10:47:46;1.70;83.50
13115;DHT22;6623;52.120;8.660;2022-11-20T10:50:16;1.60;83.20
13115;DHT22;6623;52.120;8.660;2022-11-20T10:53:06;1.60;83.20
13115;DHT22;6623;52.120;8.660;2022-11-20T10:55:57;1.80;83.20
13115;DHT22;6623;52.120;8.660;2022-11-20T10:59:00;1.80;83.10
13115;DHT22;6623;52.120;8.660;2022-11-20T11:01:27;1.90;83.10
13115;DHT22;6623;52.120;8.660;2022-11-20T11:03:55;2.60;83.50
13115;DHT22;6623;52.120;8.660;2022-11-20T11:06:32;1.80;82.90
13115;DHT22;6623;52.120;8.660;2022-11-20T11:09:02;2.00;82.90
13115;DHT22;6623;52.120;8.660;2022-11-20T11:11:32;1.90;82.80
13115;DHT22;6623;52.120;8.660;2022-11-20T11:14:11;1.90;82.80
13115;DHT22;6623;52.120;8.660;2022-11-20T11:16:52;2.00;82.90
13115;DHT22;6623;52.120;8.660;2022-11-20T11:19:18;2.10;83.00
13115;DHT22;6623;52.120;8.660;2022-11-20T11:21:48;2.10;83.00
13115;DHT22;6623;52.120;8.660;2022-11-20T11:24:21;2.10;82.80
13115;DHT22;6623;52.120;8.660;2022-11-20T11:27:02;2.20;82.70
13115;DHT22;6623;52.120;8.660;2022-11-20T11:29:32;2.30;82.70
13115;DHT22;6623;52.120;8.660;2022-11-20T11:32:07;2.30;82.60
13115;DHT22;6623;52.120;8.660;2022-11-20T11:34:33;2.30;82.50
13115;DHT22;6623;52.120;8.660;2022-11-20T11:36:59;2.40;82.60
13115;DHT22;6623;52.120;8.660;2022-11-20T11:39:27;2.40;82.50
13115;DHT22;6623;52.120;8.660;2022-11-20T11:41:53;2.50;82.30
13115;DHT22;6623;52.120;8.660;2022-11-20T11:47:11;2.50;81.90
13115;DHT22;6623;52.120;8.660;2022-11-20T11:49:43;2.50;81.60
13115;DHT22;6623;52.120;8.660;2022-11-20T11:54:58;2.50;81.30
13115;DHT22;6623;52.120;8.660;2022-11-20T12:10:48;2.30;81.00
13115;DHT22;6623;52.120;8.660;2022-11-20T12:16:02;2.30;80.10
13115;DHT22;6623;52.120;8.660;2022-11-20T12:18:29;2.30;80.00
13115;DHT22;6623;52.120;8.660;2022-11-20T12:23:44;2.30;79.80
13115;DHT22;6623;52.120;8.660;2022-11-20T12:26:42;2.20;79.50
13115;DHT22;6623;52.120;8.660;2022-11-20T12:31:44;4.40;80.60
13115;DHT22;6623;52.120;8.660;2022-11-20T12:34:27;2.20;79.20
13115;DHT22;6623;52.120;8.660;2022-11-20T12:39:42;2.30;78.80
13115;DHT22;6623;52.120;8.660;2022-11-20T12:42:35;2.80;79.10
13115;DHT22;6623;52.120;8.660;2022-11-20T12:45:54;2.40;78.70
13115;DHT22;6623;52.120;8.660;2022-11-20T12:51:36;2.40;78.50
13115;DHT22;6623;52.120;8.660;2022-11-20T12:57:01;2.40;78.10
13115;DHT22;6623;52.120;8.660;2022-11-20T13:08:45;2.40;77.70
13115;DHT22;6623;52.120;8.660;2022-11-20T13:14:23;2.40;77.60
13115;DHT22;6623;52.120;8.660;2022-11-20T13:17:02;2.50;77.60
13115;DHT22;6623;52.120;8.660;2022-11-20T13:19:30;2.50;77.50
13115;DHT22;6623;52.120;8.660;2022-11-20T13:21:55;2.50;77.40
13115;DHT22;6623;52.120;8.660;2022-11-20T13:24:22;2.60;77.40
13115;DHT22;6623;52.120;8.660;2022-11-20T13:27:00;2.60;77.10
13115;DHT22;6623;52.120;8.660;2022-11-20T13:29:26;2.50;76.90
13115;DHT22;6623;52.120;8.660;2022-11-20T13:32:02;2.50;76.80
13115;DHT22;6623;52.120;8.660;2022-11-20T13:34:28;2.50;76.60
13115;DHT22;6623;52.120;8.660;2022-11-20T13:36:57;2.50;76.60
13115;DHT22;6623;52.120;8.660;2022-11-20T13:42:03;2.40;76.30
13115;DHT22;6623;52.120;8.660;2022-11-20T13:44:53;2.60;76.30
13115;DHT22;6623;52.120;8.660;2022-11-20T13:47:24;2.50;76.20
13115;DHT22;6623;52.120;8.660;2022-11-20T13:49:52;2.70;76.30
13115;DHT22;6623;52.120;8.660;2022-11-20T13:52:54;2.90;76.40
13115;DHT22;6623;52.120;8.660;2022-11-20T13:55:36;2.60;76.20
13115;DHT22;6623;52.120;8.660;2022-11-20T14:01:15;2.60;76.00
13115;DHT22;6623;52.120;8.660;2022-11-20T14:03:42;2.50;75.90
13115;DHT22;6623;52.120;8.660;2022-11-20T14:06:19;2.60;75.90
13115;DHT22;6623;52.120;8.660;2022-11-20T14:08:47;2.60;75.80
13115;DHT22;6623;52.120;8.660;2022-11-20T14:11:28;2.50;75.60
13115;DHT22;6623;52.120;8.660;2022-11-20T14:14:01;2.50;75.50
13115;DHT22;6623;52.120;8.660;2022-11-20T14:16:31;2.50;75.50
13115;DHT22;6623;52.120;8.660;2022-11-20T14:18:58;2.70;75.60
13115;DHT22;6623;52.120;8.660;2022-11-20T14:21:41;2.40;75.50
13115;DHT22;6623;52.120;8.660;2022-11-20T14:24:11;2.40;75.60
13115;DHT22;6623;52.120;8.660;2022-11-20T14:26:38;2.40;75.50
13115;DHT22;6623;52.120;8.660;2022-11-20T14:29:14;2.50;75.60
13115;DHT22;6623;52.120;8.660;2022-11-20T14:31:42;2.60;75.50
13115;DHT22;6623;52.120;8.660;2022-11-20T14:34:20;2.50;75.40
13115;DHT22;6623;52.120;8.660;2022-11-20T14:36:46;2.50;75.30
13115;DHT22;6623;52.120;8.660;2022-11-20T14:39:20;2.50;75.30
13115;DHT22;6623;52.120;8.660;2022-11-20T14:41:53;2.50;75.30
13115;DHT22;6623;52.120;8.660;2022-11-20T14:44:39;2.60;75.40
13115;DHT22;6623;52.120;8.660;2022-11-20T14:47:05;2.50;75.50
13115;DHT22;6623;52.120;8.660;2022-11-20T14:49:31;2.50;75.60
13115;DHT22;6623;52.120;8.660;2022-11-20T14:52:02;2.60;75.80
13115;DHT22;6623;52.120;8.660;2022-11-20T14:54:28;2.60;75.80
13115;DHT22;6623;52.120;8.660;2022-11-20T14:56:56;2.50;75.70
13115;DHT22;6623;52.120;8.660;2022-11-20T14:59:27;2.60;75.70
13115;DHT22;6623;52.120;8.660;2022-11-20T15:01:59;2.60;75.60
13115;DHT22;6623;52.120;8.660;2022-11-20T15:04:25;2.70;75.50
13115;DHT22;6623;52.120;8.660;2022-11-20T15:06:53;2.50;75.40
13115;DHT22;6623;52.120;8.660;2022-11-20T15:09:18;2.50;75.40
13115;DHT22;6623;52.120;8.660;2022-11-20T15:11:55;2.60;75.40
13115;DHT22;6623;52.120;8.660;2022-11-20T15:14:23;2.60;75.50
13115;DHT22;6623;52.120;8.660;2022-11-20T15:16:49;2.50;75.50
13115;DHT22;6623;52.120;8.660;2022-11-20T15:19:22;2.50;75.50
13115;DHT22;6623;52.120;8.660;2022-11-20T15:21:48;2.50;75.50
13115;DHT22;6623;52.120;8.660;2022-11-20T15:24:13;2.50;75.70
13115;DHT22;6623;52.120;8.660;2022-11-20T15:26:39;2.50;75.70
13115;DHT22;6623;52.120;8.660;2022-11-20T15:29:11;2.40;75.70
13115;DHT22;6623;52.120;8.660;2022-11-20T15:31:38;2.50;75.80
13115;DHT22;6623;52.120;8.660;2022-11-20T15:34:14;2.50;75.80
13115;DHT22;6623;52.120;8.660;2022-11-20T15:36:40;2.50;75.90
13115;DHT22;6623;52.120;8.660;2022-11-20T15:39:07;2.60;76.10
13115;DHT22;6623;52.120;8.660;2022-11-20T15:41:34;2.60;76.20
13115;DHT22;6623;52.120;8.660;2022-11-20T15:44:01;2.60;76.10
13115;DHT22;6623;52.120;8.660;2022-11-20T15:46:29;3.80;76.90
13115;DHT22;6623;52.120;8.660;2022-11-20T15:48:57;2.60;76.10
13115;DHT22;6623;52.120;8.660;2022-11-20T15:51:35;2.60;76.20
13115;DHT22;6623;52.120;8.660;2022-11-20T15:54:16;2.60;76.20
13115;DHT22;6623;52.120;8.660;2022-11-20T15:56:43;2.60;76.10
13115;DHT22;6623;52.120;8.660;2022-11-20T15:59:09;2.60;76.00
13115;DHT22;6623;52.120;8.660;2022-11-20T16:01:35;2.60;75.90
13115;DHT22;6623;52.120;8.660;2022-11-20T16:04:01;2.60;75.80
13115;DHT22;6623;52.120;8.660;2022-11-20T16:06:26;2.50;75.70
13115;DHT22;6623;52.120;8.660;2022-11-20T16:08:52;2.50;75.60
13115;DHT22;6623;52.120;8.660;2022-11-20T16:11:18;2.50;75.60
13115;DHT22;6623;52.120;8.660;2022-11-20T16:13:44;2.40;75.60
13115;DHT22;6623;52.120;8.660;2022-11-20T16:16:36;2.40;75.70
13115;DHT22;6623;52.120;8.660;2022-11-20T16:19:03;2.40;75.80
13115;DHT22;6623;52.120;8.660;2022-11-20T16:21:28;2.40;76.10
13115;DHT22;6623;52.120;8.660;2022-11-20T16:24:02;2.40;76.30
13115;DHT22;6623;52.120;8.660;2022-11-20T16:26:28;2.40;76.50
13115;DHT22;6623;52.120;8.660;2022-11-20T16:28:54;2.50;76.70
13115;DHT22;6623;52.120;8.660;2022-11-20T16:31:20;2.50;76.80
13115;DHT22;6623;52.120;8.660;2022-11-20T16:33:54;2.50;77.00
13115;DHT22;6623;52.120;8.660;2022-11-20T16:36:22;2.60;77.10
13115;DHT22;6623;52.120;8.660;2022-11-20T16:38:52;2.60;77.10
13115;DHT22;6623;52.120;8.660;2022-11-20T16:41:18;2.60;77.20
13115;DHT22;6623;52.120;8.660;2022-11-20T16:43:51;2.70;77.40
13115;DHT22;6623;52.120;8.660;2022-11-20T16:46:20;2.70;77.30
13115;DHT22;6623;52.120;8.660;2022-11-20T16:49:04;2.70;77.30
13115;DHT22;6623;52.120;8.660;2022-11-20T16:51:33;2.70;77.30
13115;DHT22;6623;52.120;8.660;2022-11-20T16:54:04;2.70;77.30
13115;DHT22;6623;52.120;8.660;2022-11-20T16:56:30;2.80;77.40
13115;DHT22;6623;52.120;8.660;2022-11-20T16:58:58;2.80;77.40
13115;DHT22;6623;52.120;8.660;2022-11-20T17:01:24;2.80;77.40
13115;DHT22;6623;52.120;8.660;2022-11-20T17:04:01;2.80;77.40
13115;DHT22;6623;52.120;8.660;2022-11-20T17:06:32;2.80;77.40
13115;DHT22;6623;52.120;8.660;2022-11-20T17:08:58;2.80;77.40
13115;DHT22;6623;52.120;8.660;2022-11-20T17:11:24;2.80;77.50
13115;DHT22;6623;52.120;8.660;2022-11-20T17:13:51;2.80;77.50
13115;DHT22;6623;52.120;8.660;2022-11-20T17:16:21;2.80;77.50
13115;DHT22;6623;52.120;8.660;2022-11-20T17:18:47;2.90;77.50
13115;DHT22;6623;52.120;8.660;2022-11-20T17:21:17;2.80;77.40
13115;DHT22;6623;52.120;8.660;2022-11-20T17:23:44;2.80;77.40
13115;DHT22;6623;52.120;8.660;2022-11-20T17:26:16;2.80;77.40
13115;DHT22;6623;52.120;8.660;2022-11-20T17:28:43;3.60;77.80